TimeCDT,TemperatureF,Dew PointF,Humidity,Sea Level PressureIn,VisibilityMPH,Wind Direction,Wind SpeedMPH,Gust SpeedMPH,PrecipitationIn,Events,Conditions,WindDirDegrees,DateUTC
12:58 AM,71.2,66.2,84,29.96,10.0,SSE,12.7,-,N/A,,Partly Cloudy,150,2013-05-26 05:58:00
1:58 AM,70.2,66.6,88,29.98,10.0,South,9.2,-,N/A,,Clear,170,2013-05-26 06:58:00
2:58 AM,69.3,67.6,95,29.97,10.0,SSE,15.0,-,N/A,,Clear,160,2013-05-26 07:58:00
3:58 AM,69.8,68.7,96,29.93,10.0,South,15.0,21.9,N/A,,Clear,170,2013-05-26 08:58:00
4:58 AM,69.6,68.5,96,29.90,10.0,South,19.6,-,N/A,,Clear,170,2013-05-26 09:58:00
5:58 AM,69.3,66.2,90,29.90,10.0,South,16.1,27.6,N/A,,Clear,170,2013-05-26 10:58:00
6:58 AM,68.7,66.7,93,29.93,10.0,South,10.4,19.6,N/A,,Clear,180,2013-05-26 11:58:00
7:23 AM,69.8,66.2,88,29.97,10.0,SSW,11.5,-,N/A,,Mostly Cloudy,200,2013-05-26 12:23:00
7:58 AM,70.0,66.9,90,29.93,10.0,South,13.8,-,N/A,,Overcast,190,2013-05-26 12:58:00
8:58 AM,72.0,66.9,84,29.90,10.0,South,20.7,27.6,N/A,,Mostly Cloudy,170,2013-05-26 13:58:00
9:13 AM,73.4,66.2,78,29.93,10.0,South,18.4,29.9,N/A,,Scattered Clouds,170,2013-05-26 14:13:00
9:23 AM,73.4,66.2,78,29.93,10.0,South,19.6,29.9,N/A,,Mostly Cloudy,170,2013-05-26 14:23:00
9:58 AM,72.9,67.6,84,29.90,10.0,SSE,20.7,25.3,N/A,,Overcast,160,2013-05-26 14:58:00
10:58 AM,75.2,68.4,79,29.93,10.0,SSW,18.4,24.2,N/A,,Overcast,200,2013-05-26 15:58:00
11:58 AM,77.2,68.7,75,29.93,10.0,SSW,17.3,-,N/A,,Overcast,210,2013-05-26 16:58:00
12:38 PM,80.6,69.8,70,29.95,10.0,SSW,19.6,26.5,N/A,,Mostly Cloudy,200,2013-05-26 17:38:00
12:48 PM,80.6,69.8,70,29.95,10.0,SSW,18.4,28.8,N/A,,Mostly Cloudy,210,2013-05-26 17:48:00
12:53 PM,80.6,69.8,70,29.95,10.0,SSW,17.3,-,N/A,,Scattered Clouds,200,2013-05-26 17:53:00
12:58 PM,80.4,68.9,68,29.92,10.0,SSW,17.3,-,N/A,,Scattered Clouds,200,2013-05-26 17:58:00
1:08 PM,80.6,68.0,65,29.95,10.0,SSW,16.1,24.2,N/A,,Mostly Cloudy,200,2013-05-26 18:08:00
1:43 PM,80.6,68.0,65,29.93,10.0,South,17.3,25.3,N/A,,Overcast,180,2013-05-26 18:43:00
1:48 PM,80.6,68.0,65,29.93,10.0,South,15.0,23.0,N/A,,Mostly Cloudy,170,2013-05-26 18:48:00
1:58 PM,82.4,68.0,62,29.90,10.0,South,18.4,23.0,N/A,,Overcast,190,2013-05-26 18:58:00
2:58 PM,82.4,68.9,64,29.87,10.0,SSE,19.6,26.5,N/A,,Scattered Clouds,150,2013-05-26 19:58:00
3:58 PM,81.9,68.7,64,29.86,10.0,SSE,16.1,23.0,N/A,,Partly Cloudy,160,2013-05-26 20:58:00
4:58 PM,82.2,68.4,63,29.84,10.0,South,23.0,28.8,N/A,,Partly Cloudy,180,2013-05-26 21:58:00
5:58 PM,83.5,68.4,60,29.83,10.0,SSE,20.7,28.8,N/A,,Scattered Clouds,160,2013-05-26 22:58:00
6:58 PM,81.7,66.7,60,29.82,10.0,South,16.1,28.8,N/A,,Clear,190,2013-05-26 23:58:00
7:58 PM,80.1,67.3,65,29.82,10.0,South,11.5,20.7,N/A,,Partly Cloudy,190,2013-05-27 00:58:00
8:58 PM,78.1,67.5,70,29.83,10.0,South,13.8,-,N/A,,Clear,180,2013-05-27 01:58:00
9:58 PM,76.6,68.0,75,29.82,10.0,SSE,8.1,-,N/A,,Clear,160,2013-05-27 02:58:00
10:58 PM,75.2,69.1,81,29.81,10.0,SSE,13.8,19.6,N/A,,Clear,160,2013-05-27 03:58:00
11:58 PM,74.7,69.4,84,29.79,10.0,SSE,17.3,24.2,N/A,,Clear,160,2013-05-27 04:58:00